sensor_id;sensor_type;location;lat;lon;timestamp;P1;durP1;ratioP1;P2;durP2;ratioP2
45522;SDS011;31254;51.680;5.394;2022-10-22T00:00:14;5.50;;;2.42;;
45522;SDS011;31254;51.680;5.394;2022-10-22T00:02:43;7.13;;;3.15;;
45522;SDS011;31254;51.680;5.394;2022-10-22T00:05:10;6.72;;;2.92;;
45522;SDS011;31254;51.680;5.394;2022-10-22T00:07:37;5.20;;;2.80;;
45522;SDS011;31254;51.680;5.394;2022-10-22T00:10:05;6.78;;;2.88;;
45522;SDS011;31254;51.680;5.394;2022-10-22T00:12:32;8.55;;;2.85;;
45522;SDS011;31254;51.680;5.394;2022-10-22T00:14:59;6.00;;;3.05;;
45522;SDS011;31254;51.680;5.394;2022-10-22T00:17:25;8.10;;;3.03;;
45522;SDS011;31254;51.680;5.394;2022-10-22T00:19:54;10.45;;;3.17;;
45522;SDS011;31254;51.680;5.394;2022-10-22T00:22:22;7.22;;;3.30;;
45522;SDS011;31254;51.680;5.394;2022-10-22T00:24:48;6.85;;;3.25;;
45522;SDS011;31254;51.680;5.394;2022-10-22T00:27:15;7.30;;;3.10;;
45522;SDS011;31254;51.680;5.394;2022-10-22T00:29:42;5.97;;;3.15;;
45522;SDS011;31254;51.680;5.394;2022-10-22T00:32:08;6.22;;;2.83;;
45522;SDS011;31254;51.680;5.394;2022-10-22T00:34:36;11.30;;;3.63;;
45522;SDS011;31254;51.680;5.394;2022-10-22T00:37:02;8.88;;;3.22;;
45522;SDS011;31254;51.680;5.394;2022-10-22T00:39:29;8.90;;;2.63;;
45522;SDS011;31254;51.680;5.394;2022-10-22T00:41:58;6.95;;;3.45;;
45522;SDS011;31254;51.680;5.394;2022-10-22T00:47:31;10.35;;;3.00;;
45522;SDS011;31254;51.680;5.394;2022-10-22T00:50:02;9.38;;;2.97;;
45522;SDS011;31254;51.680;5.394;2022-10-22T00:52:31;7.10;;;3.15;;
45522;SDS011;31254;51.680;5.394;2022-10-22T00:55:00;4.03;;;2.65;;
45522;SDS011;31254;51.680;5.394;2022-10-22T00:57:30;7.40;;;3.22;;
45522;SDS011;31254;51.680;5.394;2022-10-22T00:59:57;6.68;;;2.70;;
45522;SDS011;31254;51.680;5.394;2022-10-22T01:02:24;7.55;;;3.15;;
45522;SDS011;31254;51.680;5.394;2022-10-22T01:04:51;10.02;;;3.30;;
45522;SDS011;31254;51.680;5.394;2022-10-22T01:07:21;7.15;;;2.78;;
45522;SDS011;31254;51.680;5.394;2022-10-22T01:12:47;8.57;;;3.05;;
45522;SDS011;31254;51.680;5.394;2022-10-22T01:20:50;7.05;;;3.15;;
45522;SDS011;31254;51.680;5.394;2022-10-22T01:26:35;7.13;;;3.45;;
45522;SDS011;31254;51.680;5.394;2022-10-22T01:29:26;10.30;;;3.22;;
45522;SDS011;31254;51.680;5.394;2022-10-22T01:32:00;6.75;;;3.50;;
45522;SDS011;31254;51.680;5.394;2022-10-22T01:34:30;9.95;;;4.07;;
45522;SDS011;31254;51.680;5.394;2022-10-22T01:37:01;7.38;;;3.42;;
45522;SDS011;31254;51.680;5.394;2022-10-22T01:39:28;8.68;;;3.92;;
45522;SDS011;31254;51.680;5.394;2022-10-22T01:41:56;7.13;;;3.53;;
45522;SDS011;31254;51.680;5.394;2022-10-22T01:44:27;8.02;;;3.40;;
45522;SDS011;31254;51.680;5.394;2022-10-22T01:47:06;11.45;;;3.60;;
45522;SDS011;31254;51.680;5.394;2022-10-22T02:02:14;5.50;;;3.33;;
45522;SDS011;31254;51.680;5.394;2022-10-22T02:04:48;7.07;;;3.67;;
45522;SDS011;31254;51.680;5.394;2022-10-22T02:07:21;12.65;;;4.13;;
45522;SDS011;31254;51.680;5.394;2022-10-22T02:09:51;8.63;;;3.33;;
45522;SDS011;31254;51.680;5.394;2022-10-22T02:12:20;12.32;;;4.20;;
45522;SDS011;31254;51.680;5.394;2022-10-22T02:14:54;9.25;;;3.80;;
45522;SDS011;31254;51.680;5.394;2022-10-22T02:17:22;11.82;;;4.15;;
45522;SDS011;31254;51.680;5.394;2022-10-22T02:19:55;9.93;;;4.07;;
45522;SDS011;31254;51.680;5.394;2022-10-22T02:22:29;8.90;;;3.70;;
45522;SDS011;31254;51.680;5.394;2022-10-22T02:24:58;8.48;;;4.10;;
45522;SDS011;31254;51.680;5.394;2022-10-22T02:27:27;10.57;;;3.92;;
45522;SDS011;31254;51.680;5.394;2022-10-22T02:30:08;10.95;;;4.45;;
45522;SDS011;31254;51.680;5.394;2022-10-22T02:35:21;10.25;;;4.22;;
45522;SDS011;31254;51.680;5.394;2022-10-22T02:37:51;8.80;;;3.90;;
45522;SDS011;31254;51.680;5.394;2022-10-22T02:40:23;7.18;;;3.20;;
45522;SDS011;31254;51.680;5.394;2022-10-22T02:42:50;9.23;;;3.63;;
45522;SDS011;31254;51.680;5.394;2022-10-22T02:45:21;15.02;;;3.95;;
45522;SDS011;31254;51.680;5.394;2022-10-22T02:47:48;9.90;;;3.88;;
45522;SDS011;31254;51.680;5.394;2022-10-22T02:50:15;13.40;;;4.15;;
45522;SDS011;31254;51.680;5.394;2022-10-22T02:52:42;12.60;;;3.83;;
45522;SDS011;31254;51.680;5.394;2022-10-22T02:55:12;8.73;;;3.70;;
45522;SDS011;31254;51.680;5.394;2022-10-22T02:57:39;7.40;;;3.70;;
45522;SDS011;31254;51.680;5.394;2022-10-22T03:00:07;11.65;;;3.75;;
45522;SDS011;31254;51.680;5.394;2022-10-22T03:02:35;12.65;;;4.38;;
45522;SDS011;31254;51.680;5.394;2022-10-22T03:05:02;7.22;;;3.28;;
45522;SDS011;31254;51.680;5.394;2022-10-22T03:07:31;6.35;;;3.42;;
45522;SDS011;31254;51.680;5.394;2022-10-22T03:09:58;12.23;;;3.78;;
45522;SDS011;31254;51.680;5.394;2022-10-22T03:12:27;8.70;;;3.28;;
45522;SDS011;31254;51.680;5.394;2022-10-22T03:14:56;12.23;;;3.47;;
45522;SDS011;31254;51.680;5.394;2022-10-22T03:17:23;8.80;;;3.70;;
45522;SDS011;31254;51.680;5.394;2022-10-22T03:19:49;11.77;;;3.55;;
45522;SDS011;31254;51.680;5.394;2022-10-22T03:22:21;13.00;;;3.55;;
45522;SDS011;31254;51.680;5.394;2022-10-22T03:25:02;13.63;;;3.70;;
45522;SDS011;31254;51.680;5.394;2022-10-22T03:27:35;6.60;;;3.30;;
45522;SDS011;31254;51.680;5.394;2022-10-22T03:30:04;9.10;;;3.42;;
45522;SDS011;31254;51.680;5.394;2022-10-22T03:32:33;10.63;;;3.70;;
45522;SDS011;31254;51.680;5.394;2022-10-22T03:35:00;14.30;;;3.55;;
45522;SDS011;31254;51.680;5.394;2022-10-22T03:37:27;10.70;;;3.53;;
45522;SDS011;31254;51.680;5.394;2022-10-22T03:39:56;8.63;;;3.45;;
45522;SDS011;31254;51.680;5.394;2022-10-22T03:42:23;11.35;;;3.63;;
45522;SDS011;31254;51.680;5.394;2022-10-22T03:44:51;18.02;;;4.38;;
45522;SDS011;31254;51.680;5.394;2022-10-22T03:47:18;8.48;;;3.80;;
45522;SDS011;31254;51.680;5.394;2022-10-22T03:49:44;9.20;;;3.50;;
45522;SDS011;31254;51.680;5.394;2022-10-22T03:52:12;9.68;;;3.67;;
45522;SDS011;31254;51.680;5.394;2022-10-22T03:54:40;11.75;;;3.85;;
45522;SDS011;31254;51.680;5.394;2022-10-22T03:57:09;12.98;;;4.18;;
45522;SDS011;31254;51.680;5.394;2022-10-22T03:59:37;17.05;;;3.78;;
45522;SDS011;31254;51.680;5.394;2022-10-22T04:02:06;12.63;;;4.00;;
45522;SDS011;31254;51.680;5.394;2022-10-22T04:04:33;14.45;;;3.88;;
45522;SDS011;31254;51.680;5.394;2022-10-22T04:06:59;11.45;;;4.78;;
45522;SDS011;31254;51.680;5.394;2022-10-22T04:09:26;11.45;;;3.83;;
45522;SDS011;31254;51.680;5.394;2022-10-22T04:11:53;12.02;;;4.35;;
45522;SDS011;31254;51.680;5.394;2022-10-22T04:14:22;11.30;;;3.83;;
45522;SDS011;31254;51.680;5.394;2022-10-22T04:16:49;11.15;;;3.78;;
45522;SDS011;31254;51.680;5.394;2022-10-22T04:19:16;10.13;;;4.10;;
45522;SDS011;31254;51.680;5.394;2022-10-22T04:21:43;15.85;;;3.83;;
45522;SDS011;31254;51.680;5.394;2022-10-22T04:24:10;11.70;;;3.42;;
45522;SDS011;31254;51.680;5.394;2022-10-22T04:26:36;11.20;;;4.25;;
45522;SDS011;31254;51.680;5.394;2022-10-22T04:29:05;11.73;;;3.92;;
45522;SDS011;31254;51.680;5.394;2022-10-22T04:31:33;7.93;;;3.47;;
45522;SDS011;31254;51.680;5.394;2022-10-22T04:34:00;11.48;;;3.60;;
45522;SDS011;31254;51.680;5.394;2022-10-22T04:36:27;12.32;;;3.70;;
45522;SDS011;31254;51.680;5.394;2022-10-22T04:38:55;17.30;;;3.92;;
45522;SDS011;31254;51.680;5.394;2022-10-22T04:41:27;11.65;;;3.60;;
45522;SDS011;31254;51.680;5.394;2022-10-22T04:43:55;14.57;;;3.40;;
45522;SDS011;31254;51.680;5.394;2022-10-22T04:46:25;11.88;;;3.38;;
45522;SDS011;31254;51.680;5.394;2022-10-22T04:48:54;17.65;;;3.70;;
45522;SDS011;31254;51.680;5.394;2022-10-22T04:51:21;10.55;;;3.40;;
45522;SDS011;31254;51.680;5.394;2022-10-22T04:53:50;17.92;;;3.55;;
45522;SDS011;31254;51.680;5.394;2022-10-22T04:58:48;10.82;;;3.55;;
45522;SDS011;31254;51.680;5.394;2022-10-22T05:03:48;9.15;;;3.25;;
45522;SDS011;31254;51.680;5.394;2022-10-22T05:06:16;10.98;;;3.53;;
45522;SDS011;31254;51.680;5.394;2022-10-22T05:08:46;10.43;;;3.17;;
45522;SDS011;31254;51.680;5.394;2022-10-22T05:11:14;12.75;;;3.35;;
45522;SDS011;31254;51.680;5.394;2022-10-22T05:13:42;7.70;;;3.35;;
45522;SDS011;31254;51.680;5.394;2022-10-22T05:16:09;10.73;;;3.45;;
45522;SDS011;31254;51.680;5.394;2022-10-22T05:18:37;17.85;;;3.53;;
45522;SDS011;31254;51.680;5.394;2022-10-22T05:21:09;9.30;;;3.35;;
45522;SDS011;31254;51.680;5.394;2022-10-22T05:23:39;8.90;;;2.88;;
45522;SDS011;31254;51.680;5.394;2022-10-22T05:26:07;11.35;;;3.80;;
45522;SDS011;31254;51.680;5.394;2022-10-22T05:28:35;12.27;;;3.50;;
45522;SDS011;31254;51.680;5.394;2022-10-22T05:31:03;9.93;;;3.20;;
45522;SDS011;31254;51.680;5.394;2022-10-22T05:33:30;10.98;;;2.97;;
45522;SDS011;31254;51.680;5.394;2022-10-22T05:35:58;7.20;;;3.03;;
45522;SDS011;31254;51.680;5.394;2022-10-22T05:38:29;9.65;;;3.03;;
45522;SDS011;31254;51.680;5.394;2022-10-22T05:41:03;10.45;;;2.88;;
45522;SDS011;31254;51.680;5.394;2022-10-22T05:43:35;13.68;;;3.30;;
45522;SDS011;31254;51.680;5.394;2022-10-22T05:46:09;9.18;;;2.90;;
45522;SDS011;31254;51.680;5.394;2022-10-22T05:48:38;9.88;;;2.60;;
45522;SDS011;31254;51.680;5.394;2022-10-22T05:51:06;12.85;;;2.97;;
45522;SDS011;31254;51.680;5.394;2022-10-22T05:53:36;9.40;;;3.13;;
45522;SDS011;31254;51.680;5.394;2022-10-22T05:56:05;9.77;;;3.05;;
45522;SDS011;31254;51.680;5.394;2022-10-22T05:58:44;11.50;;;3.85;;
45522;SDS011;31254;51.680;5.394;2022-10-22T06:01:20;6.57;;;2.60;;
45522;SDS011;31254;51.680;5.394;2022-10-22T06:03:54;5.97;;;2.40;;
45522;SDS011;31254;51.680;5.394;2022-10-22T06:09:22;5.90;;;2.60;;
45522;SDS011;31254;51.680;5.394;2022-10-22T06:11:52;13.25;;;3.25;;
45522;SDS011;31254;51.680;5.394;2022-10-22T06:14:20;13.30;;;3.22;;
45522;SDS011;31254;51.680;5.394;2022-10-22T06:16:48;14.35;;;3.03;;
45522;SDS011;31254;51.680;5.394;2022-10-22T06:19:16;11.25;;;3.00;;
45522;SDS011;31254;51.680;5.394;2022-10-22T06:21:47;11.32;;;2.60;;
45522;SDS011;31254;51.680;5.394;2022-10-22T06:24:15;9.50;;;2.97;;
45522;SDS011;31254;51.680;5.394;2022-10-22T06:26:42;10.60;;;2.70;;
45522;SDS011;31254;51.680;5.394;2022-10-22T06:29:09;7.28;;;2.65;;
45522;SDS011;31254;51.680;5.394;2022-10-22T06:31:38;10.43;;;2.80;;
45522;SDS011;31254;51.680;5.394;2022-10-22T06:34:06;10.10;;;2.70;;
45522;SDS011;31254;51.680;5.394;2022-10-22T06:36:38;12.50;;;3.63;;
45522;SDS011;31254;51.680;5.394;2022-10-22T06:39:12;15.52;;;2.80;;
45522;SDS011;31254;51.680;5.394;2022-10-22T06:41:40;7.55;;;2.20;;
45522;SDS011;31254;51.680;5.394;2022-10-22T06:44:10;9.80;;;2.95;;
45522;SDS011;31254;51.680;5.394;2022-10-22T06:46:40;9.40;;;2.28;;
45522;SDS011;31254;51.680;5.394;2022-10-22T06:49:12;13.13;;;3.00;;
45522;SDS011;31254;51.680;5.394;2022-10-22T06:51:40;6.90;;;2.30;;
45522;SDS011;31254;51.680;5.394;2022-10-22T06:54:07;10.00;;;2.38;;
45522;SDS011;31254;51.680;5.394;2022-10-22T06:56:39;12.15;;;2.15;;
45522;SDS011;31254;51.680;5.394;2022-10-22T06:59:06;8.07;;;2.40;;
45522;SDS011;31254;51.680;5.394;2022-10-22T07:01:35;8.95;;;2.90;;
45522;SDS011;31254;51.680;5.394;2022-10-22T07:04:09;9.32;;;2.45;;
45522;SDS011;31254;51.680;5.394;2022-10-22T07:06:36;9.45;;;2.50;;
45522;SDS011;31254;51.680;5.394;2022-10-22T07:09:02;12.07;;;2.30;;
45522;SDS011;31254;51.680;5.394;2022-10-22T07:11:39;11.88;;;2.13;;
45522;SDS011;31254;51.680;5.394;2022-10-22T07:14:12;13.88;;;3.05;;
45522;SDS011;31254;51.680;5.394;2022-10-22T07:16:41;7.75;;;2.35;;
45522;SDS011;31254;51.680;5.394;2022-10-22T07:19:08;9.93;;;2.80;;
45522;SDS011;31254;51.680;5.394;2022-10-22T07:21:35;5.25;;;2.08;;
45522;SDS011;31254;51.680;5.394;2022-10-22T07:24:02;10.35;;;2.60;;
45522;SDS011;31254;51.680;5.394;2022-10-22T07:26:32;10.95;;;2.53;;
45522;SDS011;31254;51.680;5.394;2022-10-22T07:28:59;6.72;;;2.50;;
45522;SDS011;31254;51.680;5.394;2022-10-22T07:31:28;10.35;;;2.67;;
45522;SDS011;31254;51.680;5.394;2022-10-22T07:33:57;9.23;;;2.45;;
45522;SDS011;31254;51.680;5.394;2022-10-22T07:36:24;10.75;;;2.55;;
45522;SDS011;31254;51.680;5.394;2022-10-22T07:38:54;11.60;;;2.50;;
45522;SDS011;31254;51.680;5.394;2022-10-22T07:41:23;8.80;;;2.85;;
45522;SDS011;31254;51.680;5.394;2022-10-22T07:43:49;10.00;;;2.08;;
45522;SDS011;31254;51.680;5.394;2022-10-22T07:46:16;16.77;;;2.63;;
45522;SDS011;31254;51.680;5.394;2022-10-22T07:48:43;11.52;;;2.50;;
45522;SDS011;31254;51.680;5.394;2022-10-22T07:51:10;7.22;;;1.80;;
45522;SDS011;31254;51.680;5.394;2022-10-22T07:53:36;13.80;;;2.42;;
45522;SDS011;31254;51.680;5.394;2022-10-22T07:56:03;12.63;;;2.15;;
45522;SDS011;31254;51.680;5.394;2022-10-22T07:58:30;10.60;;;2.35;;
45522;SDS011;31254;51.680;5.394;2022-10-22T08:01:00;11.55;;;2.22;;
45522;SDS011;31254;51.680;5.394;2022-10-22T08:03:31;9.52;;;2.03;;
45522;SDS011;31254;51.680;5.394;2022-10-22T08:05:58;7.85;;;2.28;;
45522;SDS011;31254;51.680;5.394;2022-10-22T08:08:28;12.45;;;2.35;;
45522;SDS011;31254;51.680;5.394;2022-10-22T08:10:56;13.15;;;2.55;;
45522;SDS011;31254;51.680;5.394;2022-10-22T08:13:24;11.25;;;2.03;;
45522;SDS011;31254;51.680;5.394;2022-10-22T08:15:55;9.55;;;2.10;;
45522;SDS011;31254;51.680;5.394;2022-10-22T08:18:23;7.57;;;2.20;;
45522;SDS011;31254;51.680;5.394;2022-10-22T08:20:50;3.72;;;1.77;;
45522;SDS011;31254;51.680;5.394;2022-10-22T08:23:17;12.20;;;1.98;;
45522;SDS011;31254;51.680;5.394;2022-10-22T08:25:44;8.15;;;1.83;;
45522;SDS011;31254;51.680;5.394;2022-10-22T08:28:13;5.03;;;1.85;;
45522;SDS011;31254;51.680;5.394;2022-10-22T08:30:46;5.47;;;1.67;;
45522;SDS011;31254;51.680;5.394;2022-10-22T08:33:13;11.90;;;2.05;;
45522;SDS011;31254;51.680;5.394;2022-10-22T08:35:43;9.43;;;2.05;;
45522;SDS011;31254;51.680;5.394;2022-10-22T08:38:13;8.75;;;1.77;;
45522;SDS011;31254;51.680;5.394;2022-10-22T08:40:43;10.50;;;2.15;;
45522;SDS011;31254;51.680;5.394;2022-10-22T08:49:11;6.13;;;1.83;;
45522;SDS011;31254;51.680;5.394;2022-10-22T08:51:44;8.48;;;1.48;;
45522;SDS011;31254;51.680;5.394;2022-10-22T08:57:22;9.35;;;1.80;;
45522;SDS011;31254;51.680;5.394;2022-10-22T09:00:01;13.93;;;2.28;;
45522;SDS011;31254;51.680;5.394;2022-10-22T09:02:36;8.05;;;1.52;;
45522;SDS011;31254;51.680;5.394;2022-10-22T09:05:32;11.80;;;1.83;;
45522;SDS011;31254;51.680;5.394;2022-10-22T09:08:00;7.90;;;1.80;;
45522;SDS011;31254;51.680;5.394;2022-10-22T09:10:28;13.85;;;2.00;;
45522;SDS011;31254;51.680;5.394;2022-10-22T09:13:00;8.85;;;1.90;;
45522;SDS011;31254;51.680;5.394;2022-10-22T09:15:29;7.03;;;1.90;;
45522;SDS011;31254;51.680;5.394;2022-10-22T09:20:57;6.65;;;1.77;;
45522;SDS011;31254;51.680;5.394;2022-10-22T09:24:05;7.55;;;2.10;;
45522;SDS011;31254;51.680;5.394;2022-10-22T09:26:33;8.52;;;1.80;;
45522;SDS011;31254;51.680;5.394;2022-10-22T09:29:03;10.70;;;1.90;;
45522;SDS011;31254;51.680;5.394;2022-10-22T09:31:32;12.38;;;1.90;;
45522;SDS011;31254;51.680;5.394;2022-10-22T09:34:00;8.60;;;2.00;;
45522;SDS011;31254;51.680;5.394;2022-10-22T09:36:33;10.50;;;1.77;;
45522;SDS011;31254;51.680;5.394;2022-10-22T09:39:01;5.57;;;1.92;;
45522;SDS011;31254;51.680;5.394;2022-10-22T09:41:28;9.13;;;2.22;;
45522;SDS011;31254;51.680;5.394;2022-10-22T09:43:56;9.45;;;2.10;;
45522;SDS011;31254;51.680;5.394;2022-10-22T09:46:26;10.70;;;2.10;;
45522;SDS011;31254;51.680;5.394;2022-10-22T09:48:59;10.07;;;1.60;;
45522;SDS011;31254;51.680;5.394;2022-10-22T09:54:18;9.35;;;1.80;;
45522;SDS011;31254;51.680;5.394;2022-10-22T09:56:47;15.90;;;2.03;;
45522;SDS011;31254;51.680;5.394;2022-10-22T09:59:30;8.80;;;1.90;;
45522;SDS011;31254;51.680;5.394;2022-10-22T10:02:00;9.23;;;1.75;;
45522;SDS011;31254;51.680;5.394;2022-10-22T10:05:03;6.35;;;1.80;;
45522;SDS011;31254;51.680;5.394;2022-10-22T10:07:31;10.68;;;1.60;;
45522;SDS011;31254;51.680;5.394;2022-10-22T10:10:00;10.60;;;1.75;;
45522;SDS011;31254;51.680;5.394;2022-10-22T10:12:34;11.68;;;2.10;;
45522;SDS011;31254;51.680;5.394;2022-10-22T10:15:27;8.85;;;1.90;;
45522;SDS011;31254;51.680;5.394;2022-10-22T10:21:00;11.75;;;2.08;;
45522;SDS011;31254;51.680;5.394;2022-10-22T10:26:36;7.78;;;1.70;;
45522;SDS011;31254;51.680;5.394;2022-10-22T10:33:02;10.43;;;1.75;;
45522;SDS011;31254;51.680;5.394;2022-10-22T10:35:27;8.57;;;2.10;;
45522;SDS011;31254;51.680;5.394;2022-10-22T10:46:28;11.57;;;1.90;;
45522;SDS011;31254;51.680;5.394;2022-10-22T10:49:10;5.72;;;1.83;;
45522;SDS011;31254;51.680;5.394;2022-10-22T10:51:46;8.45;;;1.77;;
45522;SDS011;31254;51.680;5.394;2022-10-22T10:57:53;13.13;;;2.13;;
45522;SDS011;31254;51.680;5.394;2022-10-22T11:00:13;12.65;;;1.98;;
45522;SDS011;31254;51.680;5.394;2022-10-22T11:11:54;11.82;;;2.22;;
45522;SDS011;31254;51.680;5.394;2022-10-22T11:14:30;10.38;;;2.20;;
45522;SDS011;31254;51.680;5.394;2022-10-22T11:17:03;8.18;;;1.70;;
45522;SDS011;31254;51.680;5.394;2022-10-22T11:19:43;9.95;;;2.22;;
45522;SDS011;31254;51.680;5.394;2022-10-22T11:27:44;6.78;;;1.70;;
45522;SDS011;31254;51.680;5.394;2022-10-22T11:30:17;8.38;;;2.00;;
45522;SDS011;31254;51.680;5.394;2022-10-22T11:32:59;9.50;;;2.63;;
45522;SDS011;31254;51.680;5.394;2022-10-22T11:35:30;8.20;;;2.15;;
45522;SDS011;31254;51.680;5.394;2022-10-22T11:38:01;9.43;;;2.17;;
45522;SDS011;31254;51.680;5.394;2022-10-22T11:40:35;9.25;;;2.00;;
45522;SDS011;31254;51.680;5.394;2022-10-22T11:45:36;6.70;;;2.03;;
45522;SDS011;31254;51.680;5.394;2022-10-22T11:58:31;11.68;;;2.33;;
45522;SDS011;31254;51.680;5.394;2022-10-22T12:08:45;11.57;;;2.10;;
45522;SDS011;31254;51.680;5.394;2022-10-22T12:16:55;8.30;;;1.90;;
45522;SDS011;31254;51.680;5.394;2022-10-22T12:19:40;6.78;;;2.03;;
45522;SDS011;31254;51.680;5.394;2022-10-22T12:24:48;12.73;;;1.90;;
45522;SDS011;31254;51.680;5.394;2022-10-22T12:27:23;7.60;;;2.28;;
45522;SDS011;31254;51.680;5.394;2022-10-22T12:29:55;11.73;;;2.00;;
45522;SDS011;31254;51.680;5.394;2022-10-22T12:32:32;8.82;;;1.83;;
45522;SDS011;31254;51.680;5.394;2022-10-22T12:35:17;13.90;;;2.00;;
45522;SDS011;31254;51.680;5.394;2022-10-22T12:37:50;11.48;;;2.03;;
45522;SDS011;31254;51.680;5.394;2022-10-22T12:40:20;12.25;;;2.20;;
45522;SDS011;31254;51.680;5.394;2022-10-22T12:45:26;12.63;;;2.15;;
45522;SDS011;31254;51.680;5.394;2022-10-22T12:47:56;13.20;;;2.50;;
45522;SDS011;31254;51.680;5.394;2022-10-22T12:50:34;8.55;;;1.95;;
45522;SDS011;31254;51.680;5.394;2022-10-22T12:53:13;6.97;;;1.92;;
45522;SDS011;31254;51.680;5.394;2022-10-22T12:55:47;11.23;;;2.00;;
45522;SDS011;31254;51.680;5.394;2022-10-22T12:58:20;12.57;;;2.40;;
45522;SDS011;31254;51.680;5.394;2022-10-22T13:00:54;9.48;;;1.80;;
45522;SDS011;31254;51.680;5.394;2022-10-22T13:03:29;13.90;;;2.08;;
45522;SDS011;31254;51.680;5.394;2022-10-22T13:06:12;8.00;;;1.63;;
45522;SDS011;31254;51.680;5.394;2022-10-22T13:08:55;8.68;;;1.88;;
45522;SDS011;31254;51.680;5.394;2022-10-22T13:12:10;9.93;;;2.28;;
45522;SDS011;31254;51.680;5.394;2022-10-22T13:14:30;11.40;;;1.67;;
45522;SDS011;31254;51.680;5.394;2022-10-22T13:22:27;8.25;;;1.45;;
45522;SDS011;31254;51.680;5.394;2022-10-22T13:25:20;9.77;;;1.83;;
45522;SDS011;31254;51.680;5.394;2022-10-22T13:27:56;8.80;;;1.80;;
45522;SDS011;31254;51.680;5.394;2022-10-22T13:30:50;8.95;;;1.98;;
45522;SDS011;31254;51.680;5.394;2022-10-22T13:33:28;9.90;;;2.33;;
45522;SDS011;31254;51.680;5.394;2022-10-22T13:35:58;10.30;;;1.50;;
45522;SDS011;31254;51.680;5.394;2022-10-22T13:38:26;14.25;;;2.25;;
45522;SDS011;31254;51.680;5.394;2022-10-22T13:40:54;8.85;;;1.85;;
45522;SDS011;31254;51.680;5.394;2022-10-22T13:43:21;11.63;;;1.77;;
45522;SDS011;31254;51.680;5.394;2022-10-22T13:45:51;12.82;;;1.63;;
45522;SDS011;31254;51.680;5.394;2022-10-22T13:48:20;10.00;;;1.60;;
45522;SDS011;31254;51.680;5.394;2022-10-22T13:50:49;12.70;;;1.75;;
45522;SDS011;31254;51.680;5.394;2022-10-22T13:53:18;14.63;;;1.77;;
45522;SDS011;31254;51.680;5.394;2022-10-22T13:55:47;10.73;;;1.73;;
45522;SDS011;31254;51.680;5.394;2022-10-22T13:58:16;10.07;;;1.60;;
45522;SDS011;31254;51.680;5.394;2022-10-22T14:00:49;7.63;;;1.77;;
45522;SDS011;31254;51.680;5.394;2022-10-22T14:03:20;5.32;;;1.45;;
45522;SDS011;31254;51.680;5.394;2022-10-22T14:05:51;7.90;;;1.48;;
45522;SDS011;31254;51.680;5.394;2022-10-22T14:08:18;7.22;;;1.75;;
45522;SDS011;31254;51.680;5.394;2022-10-22T14:10:47;6.45;;;1.33;;
45522;SDS011;31254;51.680;5.394;2022-10-22T14:13:18;8.23;;;2.40;;
45522;SDS011;31254;51.680;5.394;2022-10-22T14:15:46;10.82;;;1.52;;
45522;SDS011;31254;51.680;5.394;2022-10-22T14:18:16;7.15;;;1.20;;
45522;SDS011;31254;51.680;5.394;2022-10-22T14:20:54;6.18;;;1.63;;
45522;SDS011;31254;51.680;5.394;2022-10-22T14:23:24;6.55;;;1.58;;
45522;SDS011;31254;51.680;5.394;2022-10-22T14:25:53;5.38;;;1.20;;
45522;SDS011;31254;51.680;5.394;2022-10-22T14:28:21;4.72;;;1.38;;
45522;SDS011;31254;51.680;5.394;2022-10-22T14:30:47;6.82;;;1.50;;
45522;SDS011;31254;51.680;5.394;2022-10-22T14:33:20;7.90;;;1.70;;
45522;SDS011;31254;51.680;5.394;2022-10-22T14:35:57;5.38;;;1.38;;
45522;SDS011;31254;51.680;5.394;2022-10-22T14:38:25;9.27;;;1.75;;
45522;SDS011;31254;51.680;5.394;2022-10-22T14:40:54;6.95;;;1.85;;
45522;SDS011;31254;51.680;5.394;2022-10-22T14:43:22;8.95;;;1.77;;
45522;SDS011;31254;51.680;5.394;2022-10-22T14:45:51;4.25;;;1.13;;
45522;SDS011;31254;51.680;5.394;2022-10-22T14:48:18;6.90;;;1.35;;
45522;SDS011;31254;51.680;5.394;2022-10-22T14:50:46;6.20;;;1.42;;
45522;SDS011;31254;51.680;5.394;2022-10-22T14:53:18;7.30;;;1.42;;
45522;SDS011;31254;51.680;5.394;2022-10-22T14:55:45;7.88;;;1.67;;
45522;SDS011;31254;51.680;5.394;2022-10-22T14:58:14;8.32;;;1.80;;
45522;SDS011;31254;51.680;5.394;2022-10-22T15:00:41;8.68;;;1.45;;
45522;SDS011;31254;51.680;5.394;2022-10-22T15:03:09;6.78;;;1.83;;
45522;SDS011;31254;51.680;5.394;2022-10-22T15:05:40;6.80;;;1.58;;
45522;SDS011;31254;51.680;5.394;2022-10-22T15:08:10;9.48;;;1.60;;
45522;SDS011;31254;51.680;5.394;2022-10-22T15:10:37;6.85;;;1.38;;
45522;SDS011;31254;51.680;5.394;2022-10-22T15:13:07;10.65;;;1.60;;
45522;SDS011;31254;51.680;5.394;2022-10-22T15:15:34;4.75;;;1.10;;
45522;SDS011;31254;51.680;5.394;2022-10-22T15:18:07;6.25;;;1.45;;
45522;SDS011;31254;51.680;5.394;2022-10-22T15:20:34;8.23;;;1.42;;
45522;SDS011;31254;51.680;5.394;2022-10-22T15:23:03;5.70;;;1.58;;
45522;SDS011;31254;51.680;5.394;2022-10-22T15:25:30;9.07;;;1.50;;
45522;SDS011;31254;51.680;5.394;2022-10-22T15:27:57;4.88;;;1.10;;
45522;SDS011;31254;51.680;5.394;2022-10-22T15:30:32;6.38;;;1.20;;
45522;SDS011;31254;51.680;5.394;2022-10-22T15:32:59;9.07;;;1.63;;
45522;SDS011;31254;51.680;5.394;2022-10-22T15:35:27;7.30;;;1.45;;
45522;SDS011;31254;51.680;5.394;2022-10-22T15:37:56;4.18;;;1.45;;
45522;SDS011;31254;51.680;5.394;2022-10-22T15:40:25;11.15;;;1.40;;
45522;SDS011;31254;51.680;5.394;2022-10-22T15:42:52;4.47;;;1.27;;
45522;SDS011;31254;51.680;5.394;2022-10-22T15:45:18;5.88;;;1.77;;
45522;SDS011;31254;51.680;5.394;2022-10-22T15:47:49;5.03;;;1.63;;
45522;SDS011;31254;51.680;5.394;2022-10-22T15:50:16;9.30;;;2.05;;
45522;SDS011;31254;51.680;5.394;2022-10-22T15:52:42;6.72;;;1.77;;
45522;SDS011;31254;51.680;5.394;2022-10-22T15:55:11;7.70;;;1.85;;
45522;SDS011;31254;51.680;5.394;2022-10-22T15:57:43;7.10;;;1.73;;
45522;SDS011;31254;51.680;5.394;2022-10-22T16:00:11;6.38;;;1.58;;
45522;SDS011;31254;51.680;5.394;2022-10-22T16:02:38;8.13;;;1.85;;
45522;SDS011;31254;51.680;5.394;2022-10-22T16:05:05;5.63;;;1.48;;
45522;SDS011;31254;51.680;5.394;2022-10-22T16:07:32;6.72;;;1.50;;
45522;SDS011;31254;51.680;5.394;2022-10-22T16:10:01;8.63;;;2.22;;
45522;SDS011;31254;51.680;5.394;2022-10-22T16:12:28;11.82;;;2.17;;
45522;SDS011;31254;51.680;5.394;2022-10-22T16:14:54;8.05;;;2.10;;
45522;SDS011;31254;51.680;5.394;2022-10-22T16:17:21;6.78;;;2.17;;
45522;SDS011;31254;51.680;5.394;2022-10-22T16:19:48;9.80;;;2.03;;
45522;SDS011;31254;51.680;5.394;2022-10-22T16:22:15;8.57;;;2.50;;
45522;SDS011;31254;51.680;5.394;2022-10-22T16:24:42;6.15;;;2.47;;
45522;SDS011;31254;51.680;5.394;2022-10-22T16:27:08;9.10;;;2.60;;
45522;SDS011;31254;51.680;5.394;2022-10-22T16:29:36;11.43;;;3.80;;
45522;SDS011;31254;51.680;5.394;2022-10-22T16:32:04;8.95;;;3.20;;
45522;SDS011;31254;51.680;5.394;2022-10-22T16:34:31;7.93;;;3.50;;
45522;SDS011;31254;51.680;5.394;2022-10-22T16:36:57;10.25;;;3.58;;
45522;SDS011;31254;51.680;5.394;2022-10-22T16:39:24;7.63;;;3.75;;
45522;SDS011;31254;51.680;5.394;2022-10-22T16:41:53;11.23;;;3.97;;
45522;SDS011;31254;51.680;5.394;2022-10-22T16:44:20;13.40;;;3.72;;
45522;SDS011;31254;51.680;5.394;2022-10-22T16:46:47;10.40;;;3.80;;
45522;SDS011;31254;51.680;5.394;2022-10-22T16:49:13;8.38;;;3.83;;
45522;SDS011;31254;51.680;5.394;2022-10-22T16:51:40;11.10;;;3.97;;
45522;SDS011;31254;51.680;5.394;2022-10-22T16:54:06;10.27;;;3.20;;
45522;SDS011;31254;51.680;5.394;2022-10-22T16:56:40;13.25;;;3.50;;
45522;SDS011;31254;51.680;5.394;2022-10-22T16:59:09;11.32;;;3.58;;
45522;SDS011;31254;51.680;5.394;2022-10-22T17:01:38;9.55;;;3.40;;
45522;SDS011;31254;51.680;5.394;2022-10-22T17:04:06;8.45;;;3.30;;
45522;SDS011;31254;51.680;5.394;2022-10-22T17:06:36;12.50;;;3.67;;